Time;durP1;ratioP1;P1;durP2;ratioP2;P2;SDS_P1;SDS_P2;PMS_P1;PMS_P2;Temp;Humidity;BMP_temperature;BMP_pressure;BME280_temperature;BME280_humidity;BME280_pressure;Samples;Min_cycle;Max_cycle;Signal;HPM_P1;HPM_P2
2023/03/31 00:01:46;;;;;;;;;;;;;;;-0.88;100.00;100816.28;5113244;28;19918;-65
2023/03/31 00:04:12;;;;;;;;;;;;;;;-0.94;100.00;100820.09;5112930;28;19958;-66
2023/03/31 00:06:40;;;;;;;;;;;;;;;-0.91;100.00;100818.22;5112542;28;20007;-67
2023/03/31 00:09:07;;;;;;;;;;;;;;;-0.84;100.00;100814.34;5112815;28;19918;-65
2023/03/31 00:11:32;;;;;;;;;;;;;;;-0.80;100.00;100815.84;5094550;28;19957;-64
2023/03/31 00:13:58;;;;;;;;;;;;;;;-0.83;100.00;100813.44;5112530;28;19911;-67
2023/03/31 00:16:23;;;;;;;;;;;;;;;-0.89;100.00;100811.13;5112831;28;19912;-63
2023/03/31 00:18:50;;;;;;;;;;;;;;;-0.94;100.00;100806.19;5113177;28;20340;-64
2023/03/31 00:21:23;;;;;;;;;;;;;;;-0.98;100.00;100808.13;5112808;28;19912;-64
2023/03/31 00:23:49;;;;;;;;;;;;;;;-1.00;100.00;100799.53;5113504;28;19912;-66
2023/03/31 00:26:15;;;;;;;;;;;;;;;-0.95;100.00;100799.28;5113196;28;19919;-63
2023/03/31 00:28:40;;;;;;;;;;;;;;;-1.00;100.00;100796.91;5112950;28;20283;-63
2023/03/31 00:31:05;;;;;;;;;;;;;;;-1.05;100.00;100795.50;5112825;28;20049;-62
2023/03/31 00:33:31;;;;;;;;;;;;;;;-1.09;100.00;100794.84;5112578;28;19935;-63
2023/03/31 00:36:00;;;;;;;;;;;;;;;-1.09;100.00;100789.63;5112676;28;20371;-66
2023/03/31 00:38:27;;;;;;;;;;;;;;;-1.04;100.00;100782.34;5112760;28;19966;-66
2023/03/31 00:40:53;;;;;;;;;;;;;;;-0.99;100.00;100785.53;5112599;28;19916;-66
2023/03/31 00:43:25;;;;;;;;;;;;;;;-0.99;100.00;100784.69;5112318;28;19977;-66
2023/03/31 00:45:51;;;;;;;;;;;;;;;-1.00;100.00;100781.25;5112403;28;20282;-66
2023/03/31 00:48:18;;;;;;;;;;;;;;;-1.08;100.00;100773.00;5112485;28;19919;-66
2023/03/31 00:50:48;;;;;;;;;;;;;;;-1.03;100.00;100776.19;5112489;28;20021;-63
2023/03/31 00:53:16;;;;;;;;;;;;;;;-0.90;100.00;100773.69;5112334;28;20201;-66
2023/03/31 00:55:44;;;;;;;;;;;;;;;-0.74;100.00;100771.88;5112289;28;19912;-65
2023/03/31 00:58:13;;;;;;;;;;;;;;;-0.61;100.00;100771.97;5112414;28;19912;-66
2023/03/31 01:00:40;;;;;;;;;;;;;;;-0.62;100.00;100778.16;5112366;28;20025;-65
2023/03/31 01:03:08;;;;;;;;;;;;;;;-0.65;100.00;100778.34;5112423;28;19912;-65
2023/03/31 01:06:09;;;;;;;;;;;;;;;-0.61;100.00;100779.84;5112179;28;19927;-64
2023/03/31 01:08:35;;;;;;;;;;;;;;;-0.59;100.00;100769.28;5068424;28;19965;-64
2023/03/31 01:11:05;;;;;;;;;;;;;;;-0.55;100.00;100768.19;5112316;28;19935;-67
2023/03/31 01:13:31;;;;;;;;;;;;;;;-0.52;100.00;100763.59;5112266;28;19955;-66
2023/03/31 01:15:57;;;;;;;;;;;;;;;-0.51;100.00;100762.69;5112167;28;19957;-65
2023/03/31 01:18:23;;;;;;;;;;;;;;;-0.54;100.00;100760.25;5113951;28;19919;-65
2023/03/31 01:21:06;;;;;;;;;;;;;;;-0.55;100.00;100753.34;5097699;28;20434;-65
2023/03/31 01:23:50;;;;;;;;;;;;;;;-0.60;100.00;100759.75;5115736;28;19912;-65
2023/03/31 01:26:28;;;;;;;;;;;;;;;-0.67;100.00;100754.88;5115788;28;20251;-65
2023/03/31 01:29:02;;;;;;;;;;;;;;;-0.69;100.00;100753.28;5115667;28;19912;-67
2023/03/31 01:31:30;;;;;;;;;;;;;;;-0.67;100.00;100748.81;5114629;28;19911;-65
2023/03/31 01:34:07;;;;;;;;;;;;;;;-0.58;100.00;100747.41;5115626;28;19915;-66
2023/03/31 01:36:35;;;;;;;;;;;;;;;-0.49;100.00;100742.50;5115786;28;19912;-67
2023/03/31 01:39:19;;;;;;;;;;;;;;;-0.49;100.00;100739.88;5115428;28;19912;-66
2023/03/31 01:42:02;;;;;;;;;;;;;;;-0.63;100.00;100737.22;5115871;28;19969;-65
2023/03/31 01:44:46;;;;;;;;;;;;;;;-0.74;100.00;100732.66;5116971;28;20342;-66
2023/03/31 01:47:27;;;;;;;;;;;;;;;-0.82;100.00;100728.81;5116206;28;19912;-65
2023/03/31 01:49:56;;;;;;;;;;;;;;;-0.80;100.00;100732.19;5115819;28;20256;-67
2023/03/31 01:52:31;;;;;;;;;;;;;;;-0.84;100.00;100725.47;5116627;28;19936;-64
2023/03/31 01:55:16;;;;;;;;;;;;;;;-0.92;100.00;100733.72;5116481;28;19920;-65
2023/03/31 01:57:52;;;;;;;;;;;;;;;-1.01;100.00;100727.28;5114652;28;19951;-66
2023/03/31 02:00:22;;;;;;;;;;;;;;;-1.07;100.00;100725.03;5116881;28;19911;-65
2023/03/31 02:03:01;;;;;;;;;;;;;;;-1.12;100.00;100721.84;5115521;28;19911;-67
2023/03/31 02:05:41;;;;;;;;;;;;;;;-1.07;100.00;100718.97;5097451;28;19972;-64
2023/03/31 02:08:12;;;;;;;;;;;;;;;-1.01;100.00;100722.03;5115307;28;20006;-64
2023/03/31 02:10:39;;;;;;;;;;;;;;;-0.98;100.00;100719.25;5115046;28;19918;-64
2023/03/31 02:13:06;;;;;;;;;;;;;;;-0.89;100.00;100719.63;5114827;28;19911;-63
2023/03/31 02:15:38;;;;;;;;;;;;;;;-0.85;100.00;100722.00;5115210;28;19954;-65
2023/03/31 02:18:09;;;;;;;;;;;;;;;-0.87;100.00;100716.00;5114872;28;19916;-65
2023/03/31 02:20:36;;;;;;;;;;;;;;;-0.85;100.00;100715.94;5114799;28;19916;-64
2023/03/31 02:23:02;;;;;;;;;;;;;;;-0.86;100.00;100707.25;5096533;28;20287;-63
2023/03/31 02:25:40;;;;;;;;;;;;;;;-0.84;100.00;100707.16;5114311;28;19973;-66
2023/03/31 02:28:09;;;;;;;;;;;;;;;-0.81;100.00;100714.81;5114440;28;19919;-64
2023/03/31 02:30:44;;;;;;;;;;;;;;;-0.81;100.00;100710.44;5114631;28;19944;-65
2023/03/31 02:33:10;;;;;;;;;;;;;;;-0.75;100.00;100711.81;5114570;28;19946;-66
2023/03/31 02:35:35;;;;;;;;;;;;;;;-0.67;100.00;100699.13;5114806;28;20363;-63
2023/03/31 02:38:01;;;;;;;;;;;;;;;-0.64;100.00;100706.78;5115007;28;19911;-64
2023/03/31 02:40:27;;;;;;;;;;;;;;;-0.73;100.00;100708.19;5114874;28;19915;-64
2023/03/31 02:42:52;;;;;;;;;;;;;;;-0.75;100.00;100703.97;5114947;28;19922;-65
2023/03/31 02:45:36;;;;;;;;;;;;;;;-0.74;100.00;100705.66;5115102;28;19911;-65
2023/03/31 02:48:02;;;;;;;;;;;;;;;-0.76;100.00;100703.13;5114775;28;19912;-65
2023/03/31 02:50:32;;;;;;;;;;;;;;;-0.74;100.00;100701.28;5114301;28;19920;-65
2023/03/31 02:52:58;;;;;;;;;;;;;;;-0.72;100.00;100699.41;5114158;28;19912;-65
2023/03/31 02:55:32;;;;;;;;;;;;;;;-0.64;100.00;100696.31;5114416;28;19922;-65
2023/03/31 02:58:03;;;;;;;;;;;;;;;-0.58;100.00;100695.94;5114475;28;19951;-63
2023/03/31 03:00:35;;;;;;;;;;;;;;;-0.56;100.00;100699.34;5114357;28;19957;-65
2023/03/31 03:03:15;;;;;;;;;;;;;;;-0.55;100.00;100694.94;5114192;28;19912;-65
2023/03/31 03:05:58;;;;;;;;;;;;;;;-0.71;100.00;100697.63;5114247;28;19964;-65
2023/03/31 03:08:23;;;;;;;;;;;;;;;-0.81;100.00;100693.91;5113769;28;19912;-65
2023/03/31 03:10:58;;;;;;;;;;;;;;;-0.82;100.00;100692.22;5113640;28;19912;-65
2023/03/31 03:13:29;;;;;;;;;;;;;;;-0.83;100.00;100690.53;5113581;28;19919;-66
2023/03/31 03:16:18;;;;;;;;;;;;;;;-0.90;100.00;100684.81;5113613;28;19912;-64
2023/03/31 03:18:44;;;;;;;;;;;;;;;-0.95;100.00;100682.47;5102466;28;20059;-66
2023/03/31 03:21:10;;;;;;;;;;;;;;;-0.95;100.00;100682.47;5113580;28;19912;-64
2023/03/31 03:23:36;;;;;;;;;;;;;;;-0.85;100.00;100676.72;5113375;28;20481;-64
2023/03/31 03:26:01;;;;;;;;;;;;;;;-0.80;100.00;100669.44;5113510;28;19911;-64
2023/03/31 03:28:26;;;;;;;;;;;;;;;-0.85;100.00;100674.09;5113448;28;19918;-65
2023/03/31 03:30:52;;;;;;;;;;;;;;;-0.83;100.00;100674.84;5113281;28;19911;-64
2023/03/31 03:33:17;;;;;;;;;;;;;;;-0.78;100.00;100678.03;5113289;28;19912;-65
2023/03/31 03:35:43;;;;;;;;;;;;;;;-0.74;100.00;100675.13;5113187;28;19912;-65
2023/03/31 03:38:08;;;;;;;;;;;;;;;-0.71;100.00;100668.88;5113212;28;19957;-65
2023/03/31 03:40:34;;;;;;;;;;;;;;;-0.70;100.00;100675.78;5090592;28;19920;-67
2023/03/31 03:42:59;;;;;;;;;;;;;;;-0.78;100.00;100668.41;5108393;28;19961;-66
2023/03/31 03:45:24;;;;;;;;;;;;;;;-0.81;100.00;100667.75;5092874;28;19923;-64
2023/03/31 03:47:50;;;;;;;;;;;;;;;-0.81;100.00;100657.28;5092829;28;20271;-64
2023/03/31 03:50:15;;;;;;;;;;;;;;;-0.76;100.00;100665.69;5091730;28;19990;-66
2023/03/31 03:52:41;;;;;;;;;;;;;;;-0.74;100.00;100663.81;5092579;28;20359;-65
2023/03/31 03:55:06;;;;;;;;;;;;;;;-0.81;100.00;100662.53;5108600;28;20248;-65
2023/03/31 03:57:31;;;;;;;;;;;;;;;-0.89;100.00;100657.72;5091270;28;19912;-65
2023/03/31 03:59:57;;;;;;;;;;;;;;;-0.94;100.00;100660.63;5092582;28;19912;-65
2023/03/31 04:02:22;;;;;;;;;;;;;;;-0.95;100.00;100658.94;5092584;28;19912;-64
2023/03/31 04:04:47;;;;;;;;;;;;;;;-0.90;100.00;100660.44;5092524;28;20325;-66
2023/03/31 04:07:13;;;;;;;;;;;;;;;-0.93;100.00;100662.31;5092518;28;20355;-66
2023/03/31 04:09:38;;;;;;;;;;;;;;;-0.91;100.00;100661.38;5092344;28;20318;-64
2023/03/31 04:12:03;;;;;;;;;;;;;;;-0.88;100.00;100655.97;5092557;28;19923;-65
2023/03/31 04:14:29;;;;;;;;;;;;;;;-0.83;100.00;100656.53;5092300;28;19919;-65
2023/03/31 04:16:55;;;;;;;;;;;;;;;-0.77;100.00;100656.16;5092614;28;19916;-66
2023/03/31 04:19:24;;;;;;;;;;;;;;;-0.64;100.00;100659.69;5092324;28;20288;-66
2023/03/31 04:21:57;;;;;;;;;;;;;;;-0.52;100.00;100650.28;5092176;28;19912;-65
2023/03/31 04:24:29;;;;;;;;;;;;;;;-0.57;100.00;100649.72;5091256;28;19957;-65
2023/03/31 04:26:55;;;;;;;;;;;;;;;-0.65;100.00;100652.78;5092613;28;19916;-66
2023/03/31 04:29:21;;;;;;;;;;;;;;;-0.71;100.00;100655.78;5092385;28;19912;-66
2023/03/31 04:31:46;;;;;;;;;;;;;;;-0.73;100.00;100649.81;5092294;28;19912;-64
2023/03/31 04:34:13;;;;;;;;;;;;;;;-0.73;100.00;100648.03;5090826;28;19918;-66
2023/03/31 04:36:41;;;;;;;;;;;;;;;-0.69;100.00;100653.91;5092467;28;20263;-64
2023/03/31 04:39:09;;;;;;;;;;;;;;;-0.64;100.00;100646.63;5108003;28;19912;-66
2023/03/31 04:41:36;;;;;;;;;;;;;;;-0.65;100.00;100647.56;5111241;28;19927;-64
2023/03/31 04:44:01;;;;;;;;;;;;;;;-0.70;100.00;100639.16;5112864;28;19954;-65
2023/03/31 04:46:27;;;;;;;;;;;;;;;-0.69;100.00;100640.84;5112505;28;19947;-66
2023/03/31 04:48:52;;;;;;;;;;;;;;;-0.66;100.00;100638.03;5112431;28;20401;-66
2023/03/31 04:51:19;;;;;;;;;;;;;;;-0.55;100.00;100633.00;5112688;28;19938;-66
2023/03/31 04:53:44;;;;;;;;;;;;;;;-0.44;100.00;100635.78;5098326;28;19923;-66
2023/03/31 04:56:10;;;;;;;;;;;;;;;-0.39;100.00;100632.88;5116470;28;20285;-65
2023/03/31 04:58:35;;;;;;;;;;;;;;;-0.35;100.00;100635.19;5116403;28;20362;-67
2023/03/31 05:01:00;;;;;;;;;;;;;;;-0.29;100.00;100633.13;5116265;28;19915;-66
2023/03/31 05:03:26;;;;;;;;;;;;;;;-0.22;100.00;100640.53;5116152;28;19912;-65
2023/03/31 05:05:51;;;;;;;;;;;;;;;-0.28;100.00;100627.00;5116033;28;20035;-66
2023/03/31 05:08:16;;;;;;;;;;;;;;;-0.33;100.00;100627.25;5116237;28;19912;-67
2023/03/31 05:10:42;;;;;;;;;;;;;;;-0.35;100.00;100624.72;5116110;28;19964;-68
2023/03/31 05:13:10;;;;;;;;;;;;;;;-0.34;100.00;100615.94;5115754;28;20003;-65
2023/03/31 05:15:39;;;;;;;;;;;;;;;-0.18;100.00;100617.59;5097697;28;19911;-65
2023/03/31 05:18:04;;;;;;;;;;;;;;;0.00;100.00;100613.81;5115485;28;19923;-65
2023/03/31 05:20:30;;;;;;;;;;;;;;;0.17;100.00;100613.56;5116020;28;19919;-69
2023/03/31 05:22:55;;;;;;;;;;;;;;;0.27;100.00;100609.38;5115620;28;20263;-74
2023/03/31 05:25:21;;;;;;;;;;;;;;;0.10;99.13;100607.03;5116875;28;19919;-65
2023/03/31 05:27:46;;;;;;;;;;;;;;;0.01;99.66;100615.50;5117185;28;20367;-66
2023/03/31 05:30:12;;;;;;;;;;;;;;;0.13;100.00;100608.63;5115917;28;19935;-67
2023/03/31 05:32:38;;;;;;;;;;;;;;;0.23;99.58;100609.69;5115630;28;19912;-66
2023/03/31 05:35:03;;;;;;;;;;;;;;;0.26;99.20;100605.09;5115604;28;20428;-68
2023/03/31 05:37:29;;;;;;;;;;;;;;;0.24;98.97;100604.34;5115313;28;19912;-68
2023/03/31 05:39:56;;;;;;;;;;;;;;;0.22;99.08;100603.59;5115506;28;19969;-68
2023/03/31 05:42:21;;;;;;;;;;;;;;;0.25;98.77;100600.78;5115398;28;19915;-69
2023/03/31 05:44:46;;;;;;;;;;;;;;;0.33;98.89;100609.94;5097044;28;19991;-68
2023/03/31 05:47:12;;;;;;;;;;;;;;;0.34;98.36;100616.88;5115029;28;19916;-69
2023/03/31 05:49:37;;;;;;;;;;;;;;;0.36;97.68;100617.59;5096754;28;20235;-68
2023/03/31 05:52:03;;;;;;;;;;;;;;;0.39;98.42;100625.25;5114845;28;19954;-68
2023/03/31 05:54:29;;;;;;;;;;;;;;;0.41;97.84;100610.28;5115190;28;19922;-67
2023/03/31 05:56:54;;;;;;;;;;;;;;;0.48;98.10;100616.78;5096751;28;19926;-68
2023/03/31 05:59:20;;;;;;;;;;;;;;;0.44;97.55;100610.06;5114842;28;19918;-68
2023/03/31 06:01:45;;;;;;;;;;;;;;;0.41;97.82;100605.88;5114381;28;19919;-67
2023/03/31 06:04:10;;;;;;;;;;;;;;;0.42;98.19;100604.09;5114569;28;19934;-68
2023/03/31 06:06:36;;;;;;;;;;;;;;;0.45;98.27;100603.88;5115202;28;19985;-67
2023/03/31 06:09:02;;;;;;;;;;;;;;;0.47;97.96;100596.75;5115093;28;19912;-68
2023/03/31 06:11:28;;;;;;;;;;;;;;;0.58;98.58;100602.97;5096506;28;19961;-69
2023/03/31 06:13:53;;;;;;;;;;;;;;;0.72;98.80;100603.81;5114730;28;19911;-69
2023/03/31 06:16:18;;;;;;;;;;;;;;;0.80;97.66;100597.09;5114495;28;19958;-69
2023/03/31 06:18:44;;;;;;;;;;;;;;;0.82;96.70;100589.97;5114916;28;19916;-68
2023/03/31 06:21:15;;;;;;;;;;;;;;;0.79;96.61;100584.09;5114746;28;20355;-69
2023/03/31 06:23:43;;;;;;;;;;;;;;;0.82;97.24;100586.50;5096500;28;19911;-70
2023/03/31 06:26:10;;;;;;;;;;;;;;;0.89;96.17;100583.38;5114632;28;20396;-69
2023/03/31 06:28:38;;;;;;;;;;;;;;;0.93;95.95;100592.72;5114487;28;20006;-69
2023/03/31 06:31:05;;;;;;;;;;;;;;;0.99;95.60;100595.88;5096047;28;20096;-68
2023/03/31 06:33:31;;;;;;;;;;;;;;;1.00;96.52;100592.28;5114274;28;20255;-68
2023/03/31 06:35:58;;;;;;;;;;;;;;;1.17;96.93;100590.19;5114408;28;19919;-68
2023/03/31 06:38:24;;;;;;;;;;;;;;;1.46;96.23;100588.16;5114338;28;19935;-68
2023/03/31 06:40:52;;;;;;;;;;;;;;;1.51;94.18;100591.28;5114121;28;20355;-69
2023/03/31 06:43:18;;;;;;;;;;;;;;;1.40;93.24;100582.47;5114297;28;20271;-68
2023/03/31 06:45:43;;;;;;;;;;;;;;;1.38;94.21;100587.84;5114171;28;19911;-68
2023/03/31 06:48:08;;;;;;;;;;;;;;;1.52;95.33;100582.47;5114777;28;19912;-69
2023/03/31 06:50:36;;;;;;;;;;;;;;;1.77;95.11;100580.72;5114214;28;19937;-67
2023/03/31 06:53:01;;;;;;;;;;;;;;;2.07;94.84;100578.47;5114116;28;19916;-68
2023/03/31 06:55:26;;;;;;;;;;;;;;;2.31;93.90;100567.06;5113919;28;19934;-66
2023/03/31 06:57:52;;;;;;;;;;;;;;;2.47;93.53;100568.47;5113950;28;20355;-68
2023/03/31 07:00:17;;;;;;;;;;;;;;;2.44;90.17;100570.47;5095778;28;19912;-67
2023/03/31 07:02:43;;;;;;;;;;;;;;;2.49;91.73;100569.19;5114251;28;20026;-67
2023/03/31 07:05:08;;;;;;;;;;;;;;;2.56;91.94;100574.81;5113884;28;19918;-70
2023/03/31 07:07:42;;;;;;;;;;;;;;;2.58;91.52;100572.88;5113768;27;19983;-67
2023/03/31 07:10:08;;;;;;;;;;;;;;;2.48;89.37;100567.50;5134039;27;20323;-68
2023/03/31 07:12:33;;;;;;;;;;;;;;;2.38;89.01;100570.94;5133935;27;19954;-65
2023/03/31 07:14:58;;;;;;;;;;;;;;;2.17;89.67;100574.22;5134001;27;19946;-64
2023/03/31 07:17:24;;;;;;;;;;;;;;;1.97;89.83;100577.44;5115845;27;19917;-66
2023/03/31 07:19:49;;;;;;;;;;;;;;;2.00;91.22;100574.59;5134335;27;19912;-69
2023/03/31 07:22:15;;;;;;;;;;;;;;;1.95;90.63;100568.84;5115680;27;20328;-68
2023/03/31 07:24:40;;;;;;;;;;;;;;;2.01;90.57;100568.41;5133877;27;20370;-69
2023/03/31 07:27:08;;;;;;;;;;;;;;;2.26;91.26;100572.69;5133949;27;20486;-67
2023/03/31 07:29:33;;;;;;;;;;;;;;;2.43;90.60;100564.38;5115708;27;20002;-71
2023/03/31 07:31:58;;;;;;;;;;;;;;;2.33;88.71;100562.56;5133691;27;20007;-67
2023/03/31 07:34:24;;;;;;;;;;;;;;;2.18;89.42;100559.28;5133932;27;20014;-67
2023/03/31 07:36:50;;;;;;;;;;;;;;;2.02;89.10;100564.81;5134074;27;20358;-66
2023/03/31 07:39:16;;;;;;;;;;;;;;;1.83;90.55;100559.25;5134950;27;19939;-67
2023/03/31 07:41:41;;;;;;;;;;;;;;;1.70;91.27;100563.69;5134351;27;19919;-67
2023/03/31 07:44:06;;;;;;;;;;;;;;;1.71;91.89;100554.88;5133672;27;19923;-67
2023/03/31 07:46:35;;;;;;;;;;;;;;;1.95;92.21;100560.97;5114847;27;20870;-68
2023/03/31 07:49:02;;;;;;;;;;;;;;;2.28;91.34;100548.91;5115159;27;19946;-68
2023/03/31 07:51:27;;;;;;;;;;;;;;;2.58;90.83;100551.88;5133425;27;20433;-67
2023/03/31 07:53:53;;;;;;;;;;;;;;;2.66;87.97;100549.50;5133611;27;20010;-69
2023/03/31 07:56:20;;;;;;;;;;;;;;;2.68;87.64;100547.59;5133435;27;19935;-67
2023/03/31 07:58:45;;;;;;;;;;;;;;;2.66;87.98;100544.25;5133716;27;19915;-67
2023/03/31 08:01:15;;;;;;;;;;;;;;;2.82;89.17;100543.06;5133559;27;19924;-68
2023/03/31 08:03:41;;;;;;;;;;;;;;;2.82;87.58;100548.31;5133415;27;20385;-67
2023/03/31 08:06:07;;;;;;;;;;;;;;;3.06;88.21;100546.41;5133386;28;19950;-68
2023/03/31 08:08:32;;;;;;;;;;;;;;;3.33;86.69;100539.00;5133339;28;19960;-70
2023/03/31 08:10:57;;;;;;;;;;;;;;;3.39;85.97;100543.75;5133163;28;20014;-68
2023/03/31 08:13:23;;;;;;;;;;;;;;;3.39;84.68;100554.28;5133060;28;20354;-67
2023/03/31 08:15:48;;;;;;;;;;;;;;;3.46;85.40;100543.25;5133409;28;19912;-65
2023/03/31 08:18:13;;;;;;;;;;;;;;;3.71;86.24;100538.53;5133273;28;20250;-67
2023/03/31 08:20:39;;;;;;;;;;;;;;;4.04;85.26;100534.13;5114984;28;20369;-67
2023/03/31 08:23:07;;;;;;;;;;;;;;;3.86;82.70;100536.47;5115004;28;19915;-66
2023/03/31 08:25:33;;;;;;;;;;;;;;;3.78;82.76;100538.91;5133292;28;19918;-68
2023/03/31 08:27:58;;;;;;;;;;;;;;;3.75;82.84;100544.41;5137418;27;19911;-68
2023/03/31 08:30:24;;;;;;;;;;;;;;;3.95;83.36;100541.00;5138274;27;19915;-67
2023/03/31 08:32:49;;;;;;;;;;;;;;;4.09;81.98;100541.66;5137383;27;19911;-68
2023/03/31 08:35:14;;;;;;;;;;;;;;;3.86;81.18;100541.75;5137359;27;19919;-66
2023/03/31 08:37:40;;;;;;;;;;;;;;;3.69;82.34;100543.09;5137492;27;20326;-68
2023/03/31 08:40:08;;;;;;;;;;;;;;;3.76;82.53;100530.28;5137203;27;19939;-67
2023/03/31 08:42:42;;;;;;;;;;;;;;;3.69;81.80;100534.38;5137466;27;20006;-66
2023/03/31 08:45:19;;;;;;;;;;;;;;;3.62;83.25;100538.47;5137355;27;19965;-68
2023/03/31 08:47:46;;;;;;;;;;;;;;;3.47;83.28;100551.06;5137787;27;20106;-67
2023/03/31 08:50:15;;;;;;;;;;;;;;;3.59;84.30;100538.72;5138476;27;19912;-67
2023/03/31 08:52:42;;;;;;;;;;;;;;;3.60;84.01;100545.66;5136579;27;19962;-67
2023/03/31 08:55:16;;;;;;;;;;;;;;;3.56;83.90;100545.06;5101479;27;19922;-65
2023/03/31 08:57:54;;;;;;;;;;;;;;;3.50;83.70;100539.47;5136804;27;19911;-66
2023/03/31 09:00:19;;;;;;;;;;;;;;;3.40;83.79;100542.81;5136759;27;19911;-68
2023/03/31 09:02:47;;;;;;;;;;;;;;;3.38;85.23;100546.50;5136700;27;19922;-65
2023/03/31 09:05:18;;;;;;;;;;;;;;;3.39;84.67;100543.75;5136734;27;19957;-65
2023/03/31 09:07:50;;;;;;;;;;;;;;;3.35;84.75;100536.22;5136689;27;19912;-65
2023/03/31 09:10:24;;;;;;;;;;;;;;;3.41;85.40;100541.84;5136726;27;19993;-66
2023/03/31 09:12:53;;;;;;;;;;;;;;;3.58;84.95;100539.66;5136530;27;20014;-68
2023/03/31 09:15:39;;;;;;;;;;;;;;;3.84;84.19;100533.13;5136486;27;19915;-68
2023/03/31 09:18:24;;;;;;;;;;;;;;;4.09;83.48;100528.50;5136580;27;19919;-66
2023/03/31 09:20:51;;;;;;;;;;;;;;;4.31;81.83;100536.28;5125104;27;19918;-66
2023/03/31 09:23:28;;;;;;;;;;;;;;;4.35;83.10;100532.44;5136386;27;19947;-67
2023/03/31 09:25:55;;;;;;;;;;;;;;;4.40;80.66;100527.63;5117703;27;19911;-67
2023/03/31 09:28:25;;;;;;;;;;;;;;;4.18;81.10;100527.72;5136155;27;19933;-69
2023/03/31 09:30:51;;;;;;;;;;;;;;;3.97;82.25;100523.25;5136230;27;19915;-67
2023/03/31 09:33:27;;;;;;;;;;;;;;;4.00;83.73;100523.00;5135960;27;19911;-67
2023/03/31 09:35:52;;;;;;;;;;;;;;;4.19;83.75;100527.59;5135836;27;20347;-66
2023/03/31 09:38:18;;;;;;;;;;;;;;;4.29;81.64;100519.75;5134770;27;19919;-67
2023/03/31 09:40:43;;;;;;;;;;;;;;;4.46;82.66;100516.53;5136090;27;19959;-66
2023/03/31 09:43:12;;;;;;;;;;;;;;;4.73;82.53;100509.91;5136453;27;19915;-65
2023/03/31 09:45:37;;;;;;;;;;;;;;;4.95;81.05;100505.28;5135959;27;19912;-66
2023/03/31 09:48:05;;;;;;;;;;;;;;;4.88;79.34;100513.84;5135836;27;19912;-66
2023/03/31 09:50:35;;;;;;;;;;;;;;;4.85;80.27;100514.94;5135839;27;20359;-66
2023/03/31 09:53:04;;;;;;;;;;;;;;;4.68;79.58;100512.09;5136266;27;19911;-66
2023/03/31 09:55:48;;;;;;;;;;;;;;;4.57;79.91;100516.47;5136085;27;20021;-65
2023/03/31 09:58:15;;;;;;;;;;;;;;;4.58;80.07;100523.41;5134107;27;19911;-68
2023/03/31 10:00:59;;;;;;;;;;;;;;;4.54;79.95;100516.72;5135210;27;20003;-64
2023/03/31 10:03:26;;;;;;;;;;;;;;;4.43;80.80;100521.25;5124584;27;19942;-68
2023/03/31 10:05:53;;;;;;;;;;;;;;;4.51;81.26;100521.44;5110468;27;20390;-66
2023/03/31 10:08:21;;;;;;;;;;;;;;;4.59;80.72;100517.16;5135425;27;19927;-66
2023/03/31 10:10:54;;;;;;;;;;;;;;;4.47;79.93;100525.28;5135279;27;20023;-70
2023/03/31 10:13:24;;;;;;;;;;;;;;;4.39;80.14;100515.41;5135847;27;19911;-66
2023/03/31 10:16:03;;;;;;;;;;;;;;;4.31;80.58;100520.44;5121009;27;20336;-64
2023/03/31 10:18:35;;;;;;;;;;;;;;;4.20;81.23;100517.88;5114274;28;20371;-66
2023/03/31 10:21:03;;;;;;;;;;;;;;;4.22;81.52;100511.53;5114613;28;19934;-65
2023/03/31 10:23:31;;;;;;;;;;;;;;;4.42;82.32;100512.50;5096341;28;19915;-66
2023/03/31 10:25:57;;;;;;;;;;;;;;;4.47;81.27;100510.31;5114371;28;19912;-67
2023/03/31 10:28:22;;;;;;;;;;;;;;;4.48;80.85;100513.78;5114420;28;20413;-66
2023/03/31 10:30:50;;;;;;;;;;;;;;;4.53;80.63;100504.50;5114305;28;20032;-64
2023/03/31 10:33:17;;;;;;;;;;;;;;;4.43;80.80;100506.25;5114726;28;19969;-66
2023/03/31 10:35:43;;;;;;;;;;;;;;;4.41;81.28;100507.34;5114419;28;19918;-66
2023/03/31 10:38:15;;;;;;;;;;;;;;;4.33;81.56;100505.34;5114361;28;19912;-70
2023/03/31 10:40:49;;;;;;;;;;;;;;;4.34;82.36;100514.94;5114001;28;19976;-65
2023/03/31 10:43:47;;;;;;;;;;;;;;;4.54;82.61;100508.81;5114453;28;20316;-64
2023/03/31 10:46:13;;;;;;;;;;;;;;;4.76;81.60;100512.28;5114183;28;20010;-64
2023/03/31 10:48:40;;;;;;;;;;;;;;;4.61;80.41;100503.84;5114220;28;19973;-65
2023/03/31 10:51:17;;;;;;;;;;;;;;;4.46;81.65;100494.63;5113686;28;19951;-65
2023/03/31 10:53:50;;;;;;;;;;;;;;;4.50;82.22;100491.59;5095658;28;19942;-65
2023/03/31 10:56:18;;;;;;;;;;;;;;;4.78;82.21;100491.88;5114011;28;20027;-66
2023/03/31 10:59:13;;;;;;;;;;;;;;;5.03;81.11;100490.59;5114058;28;19918;-65
2023/03/31 11:01:39;;;;;;;;;;;;;;;5.03;81.34;100488.78;5095940;28;19911;-69
2023/03/31 11:04:04;;;;;;;;;;;;;;;5.08;80.34;100475.19;5113591;28;20022;-66
2023/03/31 11:06:44;;;;;;;;;;;;;;;5.06;80.75;100477.13;5095302;28;19918;-66
2023/03/31 11:09:28;;;;;;;;;;;;;;;5.17;79.65;100477.84;5113965;28;19912;-73
2023/03/31 11:11:53;;;;;;;;;;;;;;;5.27;79.46;100478.72;5113697;28;20036;-65
2023/03/31 11:14:25;;;;;;;;;;;;;;;5.46;79.71;100467.34;5113534;28;19911;-63
2023/03/31 11:16:57;;;;;;;;;;;;;;;5.58;78.75;100466.25;5113151;28;19911;-64
2023/03/31 11:19:22;;;;;;;;;;;;;;;5.22;79.04;100464.25;5113466;28;19947;-63
2023/03/31 11:22:01;;;;;;;;;;;;;;;5.03;80.80;100464.19;5113514;28;19946;-64
2023/03/31 11:24:27;;;;;;;;;;;;;;;5.05;80.88;100457.81;5113276;28;19957;-65
2023/03/31 11:27:11;;;;;;;;;;;;;;;5.13;79.83;100467.69;5113164;28;19912;-65
2023/03/31 11:29:47;;;;;;;;;;;;;;;5.31;80.34;100458.16;5113108;28;20403;-64
2023/03/31 11:32:21;;;;;;;;;;;;;;;5.01;79.78;100466.97;5113212;28;19912;-64
2023/03/31 11:35:06;;;;;;;;;;;;;;;4.85;80.91;100456.06;5094897;28;19912;-63
2023/03/31 11:37:41;;;;;;;;;;;;;;;4.86;81.10;100463.00;5113322;28;19916;-65
2023/03/31 11:40:07;;;;;;;;;;;;;;;4.80;80.80;100463.53;5113296;28;19928;-63
2023/03/31 11:42:47;;;;;;;;;;;;;;;4.73;81.16;100457.97;5113250;28;20278;-65
2023/03/31 11:45:13;;;;;;;;;;;;;;;4.94;81.72;100463.19;5112937;28;20014;-64
2023/03/31 11:47:40;;;;;;;;;;;;;;;5.08;81.21;100456.69;5112694;28;20389;-65
2023/03/31 11:50:10;;;;;;;;;;;;;;;5.21;79.59;100462.59;5112408;28;20305;-67
2023/03/31 11:52:45;;;;;;;;;;;;;;;5.19;80.20;100452.13;5112397;28;20018;-66
2023/03/31 11:55:16;;;;;;;;;;;;;;;5.33;79.63;100452.72;5112709;28;19915;-65
2023/03/31 11:57:45;;;;;;;;;;;;;;;5.41;79.29;100450.22;5112964;28;19919;-66
2023/03/31 12:00:18;;;;;;;;;;;;;;;5.58;79.22;100446.94;5112571;28;19919;-66
2023/03/31 12:02:53;;;;;;;;;;;;;;;5.65;78.51;100445.41;5094066;28;19912;-67
2023/03/31 12:05:23;;;;;;;;;;;;;;;5.35;79.19;100450.78;5112860;28;19919;-65
2023/03/31 12:08:04;;;;;;;;;;;;;;;5.31;80.46;100449.41;5112844;28;19912;-64
2023/03/31 12:10:40;;;;;;;;;;;;;;;5.27;79.96;100449.66;5112559;28;19912;-65
2023/03/31 12:13:24;;;;;;;;;;;;;;;5.17;79.99;100448.78;5112671;28;19912;-66
2023/03/31 12:16:10;;;;;;;;;;;;;;;4.93;80.10;100453.63;5112588;28;20314;-64
2023/03/31 12:18:58;;;;;;;;;;;;;;;4.79;81.65;100451.31;5097958;28;19923;-63
2023/03/31 12:21:25;;;;;;;;;;;;;;;4.80;82.55;100453.00;5113046;28;19919;-65
2023/03/31 12:23:50;;;;;;;;;;;;;;;4.75;82.00;100455.19;5112951;28;19911;-64
2023/03/31 12:26:35;;;;;;;;;;;;;;;4.72;82.40;100455.47;5112831;28;19919;-65
2023/03/31 12:29:04;;;;;;;;;;;;;;;4.66;81.92;100456.84;5112829;28;19912;-63
2023/03/31 12:31:31;;;;;;;;;;;;;;;4.69;82.40;100458.38;5112449;28;19919;-66
2023/03/31 12:34:03;;;;;;;;;;;;;;;4.78;83.64;100465.47;5112520;28;19912;-67
2023/03/31 12:36:51;;;;;;;;;;;;;;;4.71;82.75;100469.63;5112484;28;19962;-66
2023/03/31 12:39:20;;;;;;;;;;;;;;;4.48;84.31;100464.50;5094525;28;19965;-67
2023/03/31 12:42:07;;;;;;;;;;;;;;;4.19;85.03;100452.97;5090774;28;19916;-65
2023/03/31 12:44:32;;;;;;;;;;;;;;;4.04;85.92;100457.69;5092349;28;20326;-66
2023/03/31 12:47:13;;;;;;;;;;;;;;;4.13;86.06;100448.22;5092072;28;20000;-64
2023/03/31 12:49:57;;;;;;;;;;;;;;;4.21;85.52;100451.03;5092320;28;19954;-64